Time;durP1;ratioP1;P1;durP2;ratioP2;P2;SDS_P1;SDS_P2;PMS_P1;PMS_P2;Temp;Humidity;BMP_temperature;BMP_pressure;BME280_temperature;BME280_humidity;BME280_pressure;Samples;Min_cycle;Max_cycle;Signal;HPM_P1;HPM_P2
2023/07/09 00:01:49;;;;;;;17.00;9.70;;;29.60;63.40;;;;;;6216006;23;20079;-78
2023/07/09 00:04:15;;;;;;;14.57;9.10;;;29.60;63.60;;;;;;6215855;23;20005;-78
2023/07/09 00:06:41;;;;;;;12.45;9.23;;;29.60;63.60;;;;;;6215929;23;20036;-78
2023/07/09 00:09:15;;;;;;;14.40;9.63;;;29.60;63.80;;;;;;6189434;23;19997;-79
2023/07/09 00:11:44;;;;;;;15.68;9.02;;;29.50;63.90;;;;;;6215624;23;20020;-77
2023/07/09 00:14:12;;;;;;;17.42;9.50;;;29.40;64.70;;;;;;6215877;23;20327;-78
2023/07/09 00:16:39;;;;;;;14.80;9.82;;;29.40;64.30;;;;;;6215670;23;20007;-76
2023/07/09 00:19:13;;;;;;;16.45;9.60;;;29.30;64.80;;;;;;6215886;23;20280;-78
2023/07/09 00:21:40;;;;;;;17.17;9.63;;;29.30;65.30;;;;;;6215676;23;20011;-76
2023/07/09 00:24:06;;;;;;;16.92;9.13;;;29.30;65.50;;;;;;6215681;23;20008;-77
2023/07/09 00:26:33;;;;;;;14.10;9.40;;;29.30;65.40;;;;;;6189053;23;20102;-78
2023/07/09 00:29:01;;;;;;;17.35;9.43;;;29.20;65.50;;;;;;6215809;23;20100;-78
2023/07/09 00:31:27;;;;;;;12.80;8.65;;;29.20;65.80;;;;;;6215549;23;20082;-77
2023/07/09 00:33:55;;;;;;;18.98;9.40;;;29.10;65.50;;;;;;6215850;23;20051;-77
2023/07/09 00:36:31;;;;;;;13.48;8.95;;;29.10;65.40;;;;;;6215955;23;20096;-77
2023/07/09 00:39:04;;;;;;;14.77;9.18;;;29.00;65.50;;;;;;6215763;23;20020;-76
2023/07/09 00:41:33;;;;;;;;;;;29.00;65.50;;;;;;6216069;23;20441;-77
2023/07/09 00:44:21;;;;;;;14.48;8.07;;;28.90;66.00;;;;;;6215425;23;20338;-77
2023/07/09 00:46:49;;;;;;;14.38;8.75;;;28.80;65.80;;;;;;6215418;23;20000;-77
2023/07/09 00:49:29;;;;;;;13.70;8.18;;;28.90;66.10;;;;;;6215236;23;20371;-76
2023/07/09 00:52:01;;;;;;;13.90;8.30;;;28.80;66.30;;;;;;6215316;23;20020;-77
2023/07/09 00:54:36;;;;;;;14.63;7.97;;;28.80;66.00;;;;;;6215790;23;20011;-77
2023/07/09 00:57:11;;;;;;;16.45;8.65;;;28.80;66.00;;;;;;6215520;23;20015;-77
2023/07/09 00:59:39;;;;;;;16.33;7.68;;;28.80;65.80;;;;;;6215153;23;19997;-76
2023/07/09 01:02:07;;;;;;;17.08;7.72;;;28.80;65.80;;;;;;6215546;23;20005;-77
2023/07/09 01:04:33;;;;;;;13.02;7.90;;;28.80;65.90;;;;;;6215409;23;20007;-77
2023/07/09 01:06:58;;;;;;;17.08;8.35;;;28.90;66.10;;;;;;6188747;23;20036;-77
2023/07/09 01:09:25;;;;;;;14.77;7.57;;;28.90;66.20;;;;;;6215335;23;20461;-76
2023/07/09 01:11:52;;;;;;;13.07;7.90;;;28.90;66.10;;;;;;6215101;23;20008;-77
2023/07/09 01:14:21;;;;;;;12.88;7.57;;;28.90;66.00;;;;;;6188419;23;20012;-78
2023/07/09 01:16:57;;;;;;;12.93;7.68;;;28.90;66.10;;;;;;6215079;23;20131;-75
2023/07/09 01:19:28;;;;;;;12.20;7.35;;;28.90;65.90;;;;;;6215147;23;19997;-76
2023/07/09 01:21:58;;;;;;;14.80;7.82;;;28.80;66.20;;;;;;6215153;23;20002;-78
2023/07/09 01:24:45;;;;;;;13.95;7.55;;;28.80;66.00;;;;;;6215245;23;20051;-77
2023/07/09 01:27:11;;;;;;;15.63;8.43;;;28.80;66.90;;;;;;6215520;23;20005;-76
2023/07/09 01:29:38;;;;;;;15.43;7.80;;;28.80;66.30;;;;;;6215028;23;20005;-76
2023/07/09 01:32:06;;;;;;;14.52;7.30;;;28.70;66.50;;;;;;6215730;23;20016;-77
2023/07/09 01:34:32;;;;;;;18.15;7.53;;;28.70;66.70;;;;;;6215031;23;19997;-78
2023/07/09 01:36:58;;;;;;;14.95;7.72;;;28.60;66.80;;;;;;6215047;23;20087;-77
2023/07/09 01:39:28;;;;;;;12.88;7.68;;;28.60;66.80;;;;;;6215152;23;20091;-76
2023/07/09 01:41:54;;;;;;;12.80;7.88;;;28.60;66.90;;;;;;6215465;23;20062;-77
2023/07/09 01:44:20;;;;;;;11.95;7.78;;;28.60;66.80;;;;;;6214972;23;20008;-78
2023/07/09 01:46:45;;;;;;;13.07;7.43;;;28.60;66.90;;;;;;6214624;23;20004;-76
2023/07/09 01:49:11;;;;;;;11.68;7.63;;;28.60;66.90;;;;;;6214573;23;20008;-77
2023/07/09 01:51:38;;;;;;;12.50;7.60;;;28.60;67.00;;;;;;6214686;23;20013;-76
2023/07/09 01:54:04;;;;;;;14.63;7.97;;;28.60;67.10;;;;;;6215027;23;19996;-77
2023/07/09 01:56:30;;;;;;;13.30;8.38;;;28.50;67.20;;;;;;6214964;23;20012;-75
2023/07/09 01:59:01;;;;;;;13.20;7.70;;;28.50;67.20;;;;;;6214462;23;20343;-77
2023/07/09 02:01:30;;;;;;;13.30;7.97;;;28.50;67.20;;;;;;6214635;23;20068;-77
2023/07/09 02:03:56;;;;;;;13.77;7.00;;;28.50;67.30;;;;;;6214652;23;20016;-77
2023/07/09 02:06:24;;;;;;;11.20;6.95;;;28.50;67.20;;;;;;6214560;23;20007;-77
2023/07/09 02:08:50;;;;;;;14.70;7.65;;;28.50;67.50;;;;;;6214874;23;20009;-76
2023/07/09 02:11:15;;;;;;;13.13;7.03;;;28.50;67.40;;;;;;6214376;23;20500;-76
2023/07/09 02:13:41;;;;;;;13.55;7.53;;;28.40;67.50;;;;;;6214501;23;20000;-76
2023/07/09 02:16:07;;;;;;;11.65;7.43;;;28.40;67.80;;;;;;6214412;23;20075;-77
2023/07/09 02:18:34;;;;;;;21.10;8.00;;;28.40;67.80;;;;;;6214242;23;20003;-77
2023/07/09 02:21:00;;;;;;;11.80;8.05;;;28.40;67.70;;;;;;6214669;23;20008;-78
2023/07/09 02:23:27;;;;;;;15.15;7.80;;;28.40;67.80;;;;;;6214709;23;20007;-76
2023/07/09 02:25:53;;;;;;;14.20;7.97;;;28.40;68.00;;;;;;6214491;23;20000;-76
2023/07/09 02:28:19;;;;;;;10.57;7.43;;;28.40;68.00;;;;;;6214289;23;19997;-77
2023/07/09 02:30:45;;;;;;;14.55;7.78;;;28.40;67.90;;;;;;6213899;23;20021;-76
2023/07/09 02:33:10;;;;;;;11.98;7.18;;;28.40;68.10;;;;;;6214485;23;20051;-76
2023/07/09 02:35:36;;;;;;;13.35;7.72;;;28.40;68.10;;;;;;6214519;23;20312;-77
2023/07/09 02:38:03;;;;;;;15.00;7.65;;;28.40;68.20;;;;;;6214464;23;20004;-76
2023/07/09 02:40:29;;;;;;;12.43;7.75;;;28.40;68.30;;;;;;6214222;23;19997;-76
2023/07/09 02:42:55;;;;;;;16.15;7.82;;;28.30;68.50;;;;;;6213775;23;20004;-75
2023/07/09 02:45:21;;;;;;;14.10;8.70;;;28.30;68.60;;;;;;6187683;23;20135;-78
2023/07/09 02:47:47;;;;;;;13.23;7.68;;;28.30;68.70;;;;;;6214469;23;20275;-77
2023/07/09 02:50:13;;;;;;;12.32;8.05;;;28.30;68.90;;;;;;6214096;23;19997;-76
2023/07/09 02:52:41;;;;;;;13.68;7.57;;;28.30;68.80;;;;;;6214234;23;20019;-76
2023/07/09 02:55:08;;;;;;;13.07;7.72;;;28.30;69.20;;;;;;6214608;23;20005;-76
2023/07/09 02:57:34;;;;;;;12.93;8.02;;;28.20;69.10;;;;;;6214514;23;20005;-76
2023/07/09 02:59:59;;;;;;;14.10;8.05;;;28.20;69.00;;;;;;6214226;23;20330;-77
2023/07/09 03:02:26;;;;;;;15.77;8.15;;;28.20;69.10;;;;;;6214321;23;20004;-78
2023/07/09 03:04:52;;;;;;;14.75;7.80;;;28.10;69.30;;;;;;6214369;23;20004;-76
2023/07/09 03:07:17;;;;;;;13.15;7.80;;;28.10;69.50;;;;;;6214536;23;20007;-77
2023/07/09 03:09:43;;;;;;;15.55;8.00;;;28.10;70.30;;;;;;6214216;23;20330;-77
2023/07/09 03:12:09;;;;;;;12.13;7.07;;;28.10;69.50;;;;;;6214050;23;20012;-77
2023/07/09 03:14:35;;;;;;;12.52;7.50;;;28.10;69.60;;;;;;6214232;23;20426;-78
2023/07/09 03:17:01;;;;;;;14.13;8.63;;;28.10;69.70;;;;;;6214569;23;20005;-76
2023/07/09 03:19:27;;;;;;;13.68;8.00;;;28.10;69.70;;;;;;6187972;23;20062;-76
2023/07/09 03:21:52;;;;;;;11.35;7.82;;;28.10;69.90;;;;;;6214311;23;20445;-77
2023/07/09 03:24:18;;;;;;;14.85;8.18;;;28.00;69.90;;;;;;6187853;23;20005;-76
2023/07/09 03:26:45;;;;;;;10.27;7.53;;;28.00;70.00;;;;;;6214286;23;20004;-76
2023/07/09 03:29:11;;;;;;;12.00;7.80;;;28.00;70.00;;;;;;6214443;23;20450;-76
2023/07/09 03:31:37;;;;;;;17.42;7.43;;;28.00;70.10;;;;;;6213917;23;20024;-76
2023/07/09 03:34:03;;;;;;;13.43;7.95;;;28.00;70.10;;;;;;6187724;23;20005;-78
2023/07/09 03:36:30;;;;;;;15.90;7.70;;;28.00;70.10;;;;;;6214197;23;20115;-76
2023/07/09 03:38:55;;;;;;;11.80;7.53;;;28.00;70.00;;;;;;6214214;23;20007;-76
2023/07/09 03:41:21;;;;;;;12.10;7.85;;;28.00;70.20;;;;;;6214318;23;20096;-78
2023/07/09 03:43:49;;;;;;;13.75;8.23;;;27.90;70.20;;;;;;6214047;23;20418;-77
2023/07/09 03:46:15;;;;;;;10.25;7.72;;;27.90;70.40;;;;;;6214555;23;20378;-77
2023/07/09 03:48:41;;;;;;;15.13;7.95;;;27.90;70.50;;;;;;6214258;23;20058;-77
2023/07/09 03:51:06;;;;;;;13.73;7.68;;;27.80;70.60;;;;;;6213887;23;20008;-78
2023/07/09 03:53:32;;;;;;;15.60;8.05;;;27.80;71.00;;;;;;6214718;23;20064;-76
2023/07/09 03:55:59;;;;;;;16.38;7.97;;;27.70;71.00;;;;;;6216200;23;20011;-76
2023/07/09 03:58:25;;;;;;;12.70;7.50;;;27.70;71.30;;;;;;6189362;23;20012;-77
2023/07/09 04:00:51;;;;;;;11.25;6.95;;;27.60;71.20;;;;;;6215923;23;20348;-76
2023/07/09 04:03:17;;;;;;;13.88;8.05;;;27.60;71.30;;;;;;6215929;23;20064;-77
2023/07/09 04:05:42;;;;;;;12.85;7.30;;;27.70;71.40;;;;;;6215825;23;20005;-77
2023/07/09 04:08:08;;;;;;;12.23;7.35;;;27.60;71.40;;;;;;6216009;23;20411;-77
2023/07/09 04:10:34;;;;;;;11.93;7.35;;;27.60;71.30;;;;;;6215762;23;20001;-77
2023/07/09 04:13:00;;;;;;;12.57;6.90;;;27.60;72.10;;;;;;6215802;23;20044;-77
2023/07/09 04:15:26;;;;;;;12.80;6.63;;;27.70;71.70;;;;;;6215782;23;19997;-77
2023/07/09 04:17:52;;;;;;;12.85;7.82;;;27.70;71.60;;;;;;6215569;23;20004;-76
2023/07/09 04:20:18;;;;;;;9.65;7.22;;;27.80;71.50;;;;;;6215670;23;20007;-76
2023/07/09 04:22:44;;;;;;;11.45;6.57;;;27.80;71.10;;;;;;6215496;23;20005;-76
2023/07/09 04:25:11;;;;;;;10.85;7.13;;;27.80;71.20;;;;;;6215594;23;20011;-76
2023/07/09 04:27:38;;;;;;;11.48;7.22;;;27.80;71.20;;;;;;6215487;23;20028;-78
2023/07/09 04:30:05;;;;;;;9.45;6.88;;;27.90;71.30;;;;;;6215419;23;20464;-77
2023/07/09 04:32:31;;;;;;;13.63;7.00;;;27.90;70.90;;;;;;6215646;23;20020;-77
2023/07/09 04:34:57;;;;;;;12.63;7.50;;;27.90;70.90;;;;;;6215904;23;20001;-78
2023/07/09 04:37:23;;;;;;;13.80;6.65;;;27.90;71.00;;;;;;6215852;23;20024;-78
2023/07/09 04:39:49;;;;;;;12.52;7.30;;;27.90;70.90;;;;;;6215653;23;20008;-78
2023/07/09 04:42:16;;;;;;;10.73;6.80;;;27.90;70.90;;;;;;6215313;23;20405;-77
2023/07/09 04:44:43;;;;;;;11.55;6.78;;;27.90;70.60;;;;;;6215550;23;20004;-76
2023/07/09 04:47:09;;;;;;;12.25;6.95;;;27.90;70.70;;;;;;6215638;23;20011;-77
2023/07/09 04:49:35;;;;;;;12.40;6.78;;;28.00;70.50;;;;;;6215586;23;20386;-77
2023/07/09 04:52:00;;;;;;;15.73;7.60;;;28.00;70.50;;;;;;6214850;23;20462;-78
2023/07/09 04:54:27;;;;;;;11.27;6.90;;;28.00;70.30;;;;;;6214832;23;19996;-76
2023/07/09 04:56:53;;;;;;;12.15;6.72;;;28.00;70.50;;;;;;6215053;23;20001;-76
2023/07/09 04:59:19;;;;;;;11.85;7.40;;;28.00;70.40;;;;;;6214714;23;20000;-76
2023/07/09 05:01:46;;;;;;;14.30;7.10;;;28.10;70.00;;;;;;6214754;23;20055;-77
2023/07/09 05:04:11;;;;;;;11.32;6.53;;;28.00;69.90;;;;;;6214690;23;20004;-77
2023/07/09 05:06:38;;;;;;;11.68;6.38;;;28.10;70.10;;;;;;6214703;23;20024;-77
2023/07/09 05:09:04;;;;;;;14.13;6.30;;;28.10;69.80;;;;;;6214876;23;20011;-78
2023/07/09 05:11:33;;;;;;;9.27;6.47;;;28.20;69.80;;;;;;6187577;23;20288;-77
2023/07/09 05:13:59;;;;;;;10.85;6.57;;;28.20;69.60;;;;;;6214753;23;19997;-76
2023/07/09 05:16:24;;;;;;;11.52;6.35;;;28.10;69.80;;;;;;6214646;23;20000;-76
2023/07/09 05:18:50;;;;;;;11.30;6.35;;;28.20;69.60;;;;;;6214245;23;20075;-78
2023/07/09 05:21:16;;;;;;;9.48;6.63;;;28.30;69.70;;;;;;6214646;23;20001;-76
2023/07/09 05:23:41;;;;;;;12.57;6.57;;;28.50;69.20;;;;;;6214570;23;20004;-77
2023/07/09 05:26:08;;;;;;;13.45;6.40;;;28.70;68.40;;;;;;6214951;23;20446;-77
2023/07/09 05:28:34;;;;;;;12.15;6.55;;;28.90;67.80;;;;;;6214386;23;20072;-77
2023/07/09 05:31:00;;;;;;;12.23;6.20;;;29.20;66.70;;;;;;6214387;23;20462;-77
2023/07/09 05:33:26;;;;;;;11.25;6.18;;;29.30;66.10;;;;;;6214306;23;20005;-77
2023/07/09 05:35:52;;;;;;;11.85;6.43;;;29.50;66.90;;;;;;6214573;23;20349;-78
2023/07/09 05:38:17;;;;;;;11.25;6.32;;;29.80;65.30;;;;;;6214387;23;20016;-76
2023/07/09 05:40:44;;;;;;;13.75;6.32;;;30.10;64.90;;;;;;6214385;23;20043;-76
2023/07/09 05:43:11;;;;;;;10.25;6.20;;;30.30;64.40;;;;;;6214354;23;20181;-78
2023/07/09 05:45:39;;;;;;;9.52;5.97;;;30.50;63.70;;;;;;6215080;23;20347;-77
2023/07/09 05:48:05;;;;;;;9.60;6.45;;;30.60;63.10;;;;;;6214187;23;20008;-77
2023/07/09 05:50:34;;;;;;;9.90;6.20;;;30.70;62.70;;;;;;6214096;23;20007;-76
2023/07/09 05:52:59;;;;;;;13.23;6.30;;;30.80;62.30;;;;;;6214302;23;20015;-76
2023/07/09 05:55:25;;;;;;;13.18;7.07;;;30.90;62.20;;;;;;6214282;23;20004;-77
2023/07/09 05:57:53;;;;;;;11.85;6.55;;;31.10;61.60;;;;;;6214106;23;20319;-77
2023/07/09 06:00:19;;;;;;;16.13;6.45;;;31.10;61.20;;;;;;6213934;23;20008;-77
2023/07/09 06:02:44;;;;;;;15.05;6.43;;;31.20;60.30;;;;;;6214248;23;20276;-77
2023/07/09 06:05:10;;;;;;;10.65;6.70;;;31.50;60.80;;;;;;6214235;23;19996;-77
2023/07/09 06:07:37;;;;;;;12.48;6.32;;;31.80;60.10;;;;;;6214183;23;20338;-78
2023/07/09 06:10:07;;;;;;;10.98;6.07;;;32.00;59.80;;;;;;6214407;23;19996;-77
2023/07/09 06:12:33;;;;;;;11.57;6.22;;;32.30;59.40;;;;;;6214191;23;20047;-77
2023/07/09 06:14:59;;;;;;;12.48;5.93;;;32.40;59.00;;;;;;6214078;23;20009;-78
2023/07/09 06:17:25;;;;;;;11.68;6.47;;;32.70;58.70;;;;;;6214088;23;20004;-78
2023/07/09 06:19:50;;;;;;;11.30;6.18;;;32.80;58.10;;;;;;6213742;23;20351;-79
2023/07/09 06:22:16;;;;;;;10.70;6.50;;;32.90;58.00;;;;;;6214116;23;20011;-77
2023/07/09 06:24:42;;;;;;;10.25;7.05;;;32.90;57.70;;;;;;6214134;23;20016;-77
2023/07/09 06:27:12;;;;;;;10.13;5.95;;;33.00;57.50;;;;;;6214190;23;20028;-79
2023/07/09 06:29:38;;;;;;;11.88;5.90;;;33.20;56.70;;;;;;6213859;23;20001;-77
2023/07/09 06:32:04;;;;;;;11.65;6.10;;;33.50;56.70;;;;;;6213724;23;20023;-77
2023/07/09 06:34:30;;;;;;;13.85;6.40;;;33.70;56.30;;;;;;6214065;23;20497;-79
2023/07/09 06:36:56;;;;;;;11.18;5.90;;;33.90;56.10;;;;;;6213988;23;20001;-78
2023/07/09 06:39:22;;;;;;;8.63;5.82;;;34.00;55.90;;;;;;6213931;23;20059;-79
2023/07/09 06:41:48;;;;;;;10.27;6.03;;;34.10;55.70;;;;;;6214429;23;20091;-78
2023/07/09 06:44:14;;;;;;;11.02;7.03;;;34.30;55.70;;;;;;6213997;23;20003;-78
2023/07/09 06:46:40;;;;;;;12.48;8.00;;;34.40;55.10;;;;;;6214139;23;20005;-78
2023/07/09 06:49:06;;;;;;;14.50;6.97;;;34.50;55.10;;;;;;6213925;23;20004;-79
2023/07/09 06:51:32;;;;;;;12.02;6.43;;;34.50;54.80;;;;;;6213926;23;20023;-77
2023/07/09 06:53:58;;;;;;;11.73;6.30;;;34.80;54.80;;;;;;6187322;23;20004;-78
2023/07/09 06:56:24;;;;;;;8.73;6.03;;;34.90;54.60;;;;;;6213942;23;20012;-78
2023/07/09 06:58:50;;;;;;;10.73;6.20;;;34.60;54.30;;;;;;6214056;23;20008;-78
2023/07/09 07:01:15;;;;;;;12.80;6.78;;;34.60;54.40;;;;;;6214100;23;20008;-77
2023/07/09 07:03:41;;;;;;;14.35;6.45;;;34.70;54.50;;;;;;6214290;23;20435;-76
2023/07/09 07:06:07;;;;;;;10.18;6.70;;;34.80;54.50;;;;;;6213685;23;20115;-79
2023/07/09 07:08:33;;;;;;;17.42;6.97;;;35.00;54.20;;;;;;6213392;23;20072;-78
2023/07/09 07:11:05;;;;;;;17.33;6.88;;;35.10;54.30;;;;;;6213540;23;20099;-78
2023/07/09 07:13:41;;;;;;;13.05;7.57;;;35.20;53.80;;;;;;6213696;23;20051;-78
2023/07/09 07:16:09;;;;;;;15.23;8.88;;;35.30;53.70;;;;;;6213096;23;20012;-78
2023/07/09 07:18:35;;;;;;;10.85;7.63;;;35.30;53.90;;;;;;6213140;23;20114;-78
2023/07/09 07:21:01;;;;;;;12.70;7.47;;;35.30;54.20;;;;;;6213609;23;20001;-77
2023/07/09 07:23:27;;;;;;;11.93;6.85;;;35.30;53.70;;;;;;6213154;23;20080;-77
2023/07/09 07:25:54;;;;;;;11.48;6.45;;;35.20;53.60;;;;;;6214660;23;20056;-77
2023/07/09 07:28:20;;;;;;;11.75;6.68;;;35.20;53.70;;;;;;6214847;23;20032;-78
2023/07/09 07:30:46;;;;;;;11.57;6.25;;;35.00;53.80;;;;;;6215194;23;20327;-77
2023/07/09 07:33:15;;;;;;;10.80;6.45;;;34.90;54.20;;;;;;6215388;23;20438;-78
2023/07/09 07:35:40;;;;;;;10.40;6.43;;;34.80;54.40;;;;;;6215800;23;19996;-78
2023/07/09 07:38:06;;;;;;;12.40;6.55;;;34.90;54.30;;;;;;6215666;23;20001;-79
2023/07/09 07:40:32;;;;;;;12.90;8.23;;;35.00;54.00;;;;;;6215545;23;20076;-78
2023/07/09 07:42:58;;;;;;;12.85;7.03;;;35.00;53.70;;;;;;6215943;23;20000;-77
2023/07/09 07:45:24;;;;;;;11.63;6.65;;;35.00;53.80;;;;;;6215959;23;20000;-79
2023/07/09 07:47:52;;;;;;;9.05;5.45;;;35.10;53.50;;;;;;6215718;23;20000;-78
2023/07/09 07:50:17;;;;;;;10.10;6.40;;;35.00;53.60;;;;;;6215339;23;20051;-78
2023/07/09 07:52:43;;;;;;;11.10;6.38;;;35.00;53.50;;;;;;6215220;23;20091;-78
2023/07/09 07:55:09;;;;;;;9.88;5.82;;;35.00;53.70;;;;;;6215383;23;19996;-78
2023/07/09 07:57:35;;;;;;;11.18;6.47;;;35.00;53.80;;;;;;6215398;23;20015;-80
2023/07/09 08:00:01;;;;;;;12.85;7.05;;;35.00;53.80;;;;;;6215372;23;20100;-78
2023/07/09 08:02:26;;;;;;;11.80;6.82;;;34.90;53.70;;;;;;6215640;23;20366;-79
2023/07/09 08:04:52;;;;;;;10.65;6.70;;;34.70;53.60;;;;;;6215585;23;20004;-79
2023/07/09 08:07:19;;;;;;;12.70;7.20;;;34.60;53.80;;;;;;6215827;23;20419;-79
2023/07/09 08:09:46;;;;;;;14.57;6.50;;;34.60;53.90;;;;;;6215378;23;20338;-79
2023/07/09 08:12:13;;;;;;;10.73;6.30;;;34.60;53.90;;;;;;6215228;23;20016;-77
2023/07/09 08:14:41;;;;;;;15.20;6.68;;;34.60;54.00;;;;;;6215337;23;20075;-78
2023/07/09 08:17:07;;;;;;;12.00;6.75;;;34.60;54.20;;;;;;6215485;23;20011;-78
2023/07/09 08:19:43;;;;;;;14.07;7.15;;;34.50;54.20;;;;;;6215279;23;20071;-80
2023/07/09 08:22:09;;;;;;;9.93;6.68;;;34.40;54.30;;;;;;6215185;23;20015;-80
2023/07/09 08:24:34;;;;;;;8.57;5.88;;;34.40;54.20;;;;;;6215473;23;20032;-79
2023/07/09 08:27:00;;;;;;;10.73;6.10;;;34.40;53.90;;;;;;6215218;23;20004;-78
2023/07/09 08:29:26;;;;;;;14.90;6.75;;;34.20;54.20;;;;;;6215642;23;20430;-79
2023/07/09 08:31:52;;;;;;;9.75;6.40;;;34.20;54.20;;;;;;6215078;23;20107;-77
2023/07/09 08:34:17;;;;;;;10.80;6.53;;;34.00;54.20;;;;;;6219397;23;20054;-78
2023/07/09 08:36:44;;;;;;;10.00;5.72;;;33.90;54.30;;;;;;6215754;23;20000;-78
2023/07/09 08:39:10;;;;;;;12.15;6.38;;;33.90;54.60;;;;;;6214912;23;20000;-79
2023/07/09 08:41:57;;;;;;;10.80;6.88;;;33.90;54.60;;;;;;6214875;23;20103;-77
2023/07/09 08:44:54;;;;;;;12.65;6.30;;;33.80;53.40;;;;;;6214839;23;20335;-79
2023/07/09 08:47:31;;;;;;;11.82;6.60;;;33.80;53.50;;;;;;6214953;23;20004;-79
2023/07/09 08:50:18;;;;;;;12.52;6.72;;;33.90;53.70;;;;;;6214784;23;20083;-78
2023/07/09 08:52:47;;;;;;;11.38;6.95;;;33.90;55.80;;;;;;6213851;23;20016;-78
2023/07/09 08:55:18;;;;;;;11.63;6.60;;;33.80;55.10;;;;;;6189480;23;20087;-78
2023/07/09 08:57:49;;;;;;;10.82;6.43;;;33.70;55.00;;;;;;6216086;23;20005;-78
2023/07/09 09:00:26;;;;;;;11.90;6.45;;;33.60;55.20;;;;;;6215053;23;20004;-79
2023/07/09 09:02:57;;;;;;;11.65;6.53;;;33.60;53.90;;;;;;6214822;23;20458;-80
2023/07/09 09:05:24;;;;;;;10.82;6.35;;;33.60;55.10;;;;;;6215221;23;20011;-78
2023/07/09 09:08:01;;;;;;;15.43;6.50;;;33.60;54.90;;;;;;6215317;23;20047;-79
2023/07/09 09:10:39;;;;;;;9.45;6.53;;;33.60;53.60;;;;;;6215480;23;20004;-79
2023/07/09 09:13:12;;;;;;;10.95;6.40;;;33.60;55.10;;;;;;6215591;23;20383;-79
2023/07/09 09:15:42;;;;;;;11.07;6.32;;;33.60;53.40;;;;;;6215094;23;20000;-79
2023/07/09 09:18:17;;;;;;;13.63;6.72;;;33.60;54.60;;;;;;6188561;23;20004;-80
2023/07/09 09:20:45;;;;;;;10.07;6.32;;;33.50;53.00;;;;;;6215498;23;20096;-79
2023/07/09 09:23:15;;;;;;;12.93;6.00;;;33.50;54.40;;;;;;6215897;23;20004;-77
2023/07/09 09:25:50;;;;;;;11.18;6.47;;;33.50;54.70;;;;;;6216825;23;20005;-78
2023/07/09 09:28:15;;;;;;;10.85;6.30;;;33.50;53.30;;;;;;6215277;23;20418;-79
2023/07/09 09:30:41;;;;;;;11.88;6.95;;;33.40;54.60;;;;;;6214397;23;20079;-78
2023/07/09 09:33:09;;;;;;;12.80;6.13;;;33.40;54.60;;;;;;6214594;23;20071;-79
2023/07/09 09:35:38;;;;;;;8.57;5.60;;;33.40;54.90;;;;;;6214426;23;20007;-77
2023/07/09 09:38:16;;;;;;;9.18;5.95;;;33.40;54.90;;;;;;6214620;23;20058;-77
2023/07/09 09:40:42;;;;;;;9.68;6.45;;;33.40;53.50;;;;;;6187626;23;20019;-79
2023/07/09 09:43:19;;;;;;;10.63;6.88;;;33.30;54.90;;;;;;6214442;23;20004;-77
2023/07/09 09:45:48;;;;;;;10.73;7.03;;;33.40;53.70;;;;;;6214334;23;20330;-78
2023/07/09 09:48:20;;;;;;;9.98;6.35;;;33.50;55.00;;;;;;6214181;23;20001;-79
2023/07/09 09:50:47;;;;;;;11.65;6.35;;;33.50;53.60;;;;;;6214296;23;20048;-79
2023/07/09 09:53:21;;;;;;;10.02;6.28;;;33.50;54.80;;;;;;6214718;23;20308;-80
2023/07/09 09:55:48;;;;;;;14.10;6.40;;;33.60;54.60;;;;;;6214317;23;20434;-77
2023/07/09 09:58:16;;;;;;;13.10;6.43;;;33.60;54.50;;;;;;6214000;23;20060;-78
2023/07/09 10:00:51;;;;;;;13.23;6.22;;;33.60;54.60;;;;;;6213973;23;20279;-78
2023/07/09 10:03:18;;;;;;;11.60;5.93;;;33.70;54.70;;;;;;6214085;23;20040;-78
2023/07/09 10:05:50;;;;;;;10.32;6.18;;;33.70;54.70;;;;;;6214061;23;19996;-79
2023/07/09 10:08:33;;;;;;;11.98;7.10;;;33.80;54.60;;;;;;6214346;23;20449;-79
2023/07/09 10:11:24;;;;;;;11.07;6.63;;;33.80;53.20;;;;;;6215633;23;20024;-80
2023/07/09 10:13:53;;;;;;;12.48;6.45;;;33.80;54.30;;;;;;6213252;23;20009;-79
2023/07/09 10:16:29;;;;;;;7.88;5.95;;;33.90;54.30;;;;;;6214228;23;20005;-79
2023/07/09 10:19:12;;;;;;;14.93;6.63;;;33.90;54.20;;;;;;6213964;23;20011;-78
2023/07/09 10:21:46;;;;;;;14.15;6.20;;;34.00;52.80;;;;;;6213597;23;20004;-78
2023/07/09 10:24:39;;;;;;;11.30;6.43;;;34.00;53.80;;;;;;6213657;23;20339;-79
2023/07/09 10:27:48;;;;;;;9.77;5.80;;;34.00;53.50;;;;;;6213931;23;20004;-81
2023/07/09 10:30:42;;;;;;;10.98;5.97;;;34.10;51.70;;;;;;6213695;23;20025;-80
2023/07/09 10:33:27;;;;;;;12.50;5.88;;;34.10;53.20;;;;;;6213977;23;20032;-79
2023/07/09 10:36:29;;;;;;;12.50;6.22;;;34.20;51.90;;;;;;6214382;23;20001;-78
2023/07/09 10:39:25;;;;;;;10.33;6.37;;;34.20;51.70;;;;;;6197865;23;20095;-79
2023/07/09 10:41:53;;;;;;;9.75;5.40;;;34.30;51.40;;;;;;6206459;23;20140;-80
2023/07/09 10:44:25;;;;;;;12.60;5.40;;;34.30;52.40;;;;;;6213920;23;20036;-79
2023/07/09 10:46:57;;;;;;;10.20;5.30;;;34.30;52.00;;;;;;6214214;23;20005;-79
2023/07/09 10:49:30;;;;;;;8.43;5.38;;;34.30;51.70;;;;;;6214284;23;20336;-79
2023/07/09 10:52:04;;;;;;;10.18;5.78;;;34.40;52.00;;;;;;6213697;23;20012;-79
2023/07/09 10:54:50;;;;;;;10.02;5.45;;;34.40;50.40;;;;;;6214040;23;20347;-79
2023/07/09 10:57:24;;;;;;;12.32;5.63;;;34.40;50.30;;;;;;6213576;23;20375;-78
2023/07/09 10:59:51;;;;;;;14.50;5.65;;;34.40;51.40;;;;;;6214000;23;20015;-79
2023/07/09 11:02:29;;;;;;;12.60;5.45;;;34.50;51.10;;;;;;6213705;23;20036;-79
2023/07/09 11:04:55;;;;;;;8.45;6.13;;;34.60;51.00;;;;;;6215897;23;20055;-80
2023/07/09 11:07:31;;;;;;;10.23;4.95;;;34.70;50.80;;;;;;6215905;23;20108;-80
2023/07/09 11:09:59;;;;;;;14.50;5.97;;;34.70;50.60;;;;;;6216054;23;19997;-79
2023/07/09 11:12:42;;;;;;;12.40;5.97;;;34.90;50.30;;;;;;6215571;23;20009;-79
2023/07/09 11:15:13;;;;;;;11.25;5.90;;;35.00;50.10;;;;;;6215794;23;20004;-80
2023/07/09 11:17:45;;;;;;;12.60;6.03;;;35.00;49.70;;;;;;6215633;23;20004;-79
2023/07/09 11:20:24;;;;;;;9.80;5.67;;;35.10;49.50;;;;;;6215808;23;20001;-80
2023/07/09 11:22:54;;;;;;;12.35;5.60;;;35.20;49.00;;;;;;6215737;23;20068;-79
2023/07/09 11:25:40;;;;;;;8.60;5.63;;;35.30;48.60;;;;;;6215916;23;20004;-79
2023/07/09 11:28:06;;;;;;;9.27;5.05;;;35.30;48.10;;;;;;6216000;23;20404;-79
2023/07/09 11:30:32;;;;;;;10.85;5.28;;;35.30;48.10;;;;;;6215847;23;20020;-80
2023/07/09 11:33:04;;;;;;;9.68;6.15;;;35.40;48.20;;;;;;6215619;23;20382;-79
2023/07/09 11:35:48;;;;;;;10.70;5.60;;;35.40;47.90;;;;;;6215789;23;20039;-78
2023/07/09 11:38:24;;;;;;;11.52;5.70;;;35.50;48.10;;;;;;6189093;23;20465;-79
2023/07/09 11:40:52;;;;;;;11.23;6.07;;;35.60;47.80;;;;;;6216280;23;20012;-79
2023/07/09 11:43:47;;;;;;;8.93;5.20;;;35.60;47.50;;;;;;6216146;23;20075;-79
2023/07/09 11:46:20;;;;;;;10.85;5.40;;;35.70;47.70;;;;;;6190045;23;20000;-80
2023/07/09 11:48:49;;;;;;;8.93;5.25;;;35.70;47.60;;;;;;6215901;23;20075;-80
2023/07/09 11:51:23;;;;;;;8.13;5.15;;;35.80;47.10;;;;;;6215708;23;20019;-79
2023/07/09 11:53:52;;;;;;;11.65;5.63;;;35.80;46.50;;;;;;6215680;23;20000;-79
2023/07/09 11:56:20;;;;;;;11.07;5.40;;;35.80;46.60;;;;;;6215591;23;20012;-80
2023/07/09 11:58:56;;;;;;;12.43;5.68;;;35.80;46.60;;;;;;6215757;23;19996;-79
2023/07/09 12:01:31;;;;;;;11.73;5.35;;;35.80;46.20;;;;;;6216172;23;20032;-81
2023/07/09 12:03:58;;;;;;;10.10;5.63;;;35.80;46.00;;;;;;6189137;23;20004;-80
2023/07/09 12:06:29;;;;;;;10.27;5.10;;;35.80;46.10;;;;;;6215725;23;20005;-79
2023/07/09 12:08:56;;;;;;;13.25;5.55;;;35.90;46.10;;;;;;6215867;23;20004;-79
2023/07/09 12:11:26;;;;;;;11.25;5.78;;;36.00;46.00;;;;;;6215544;23;20083;-78
2023/07/09 12:13:53;;;;;;;9.82;5.78;;;36.10;45.60;;;;;;6215336;23;20025;-80
2023/07/09 12:16:25;;;;;;;8.13;5.25;;;36.10;45.60;;;;;;6215576;23;20009;-80
2023/07/09 12:18:51;;;;;;;7.53;5.28;;;36.20;45.60;;;;;;6215501;23;20335;-79
2023/07/09 12:21:17;;;;;;;11.05;5.03;;;36.30;45.70;;;;;;6215279;23;20024;-78
2023/07/09 12:23:43;;;;;;;11.05;5.72;;;36.40;46.10;;;;;;6215379;23;20465;-79
2023/07/09 12:26:17;;;;;;;8.70;5.50;;;36.50;46.60;;;;;;6215336;23;20105;-80
2023/07/09 12:28:48;;;;;;;11.13;5.10;;;36.60;46.90;;;;;;6188960;23;20012;-80
2023/07/09 12:31:15;;;;;;;11.80;4.78;;;36.60;47.30;;;;;;6215167;23;20027;-79
2023/07/09 12:33:53;;;;;;;12.35;5.68;;;36.70;47.70;;;;;;6215460;23;20067;-79
2023/07/09 12:36:19;;;;;;;15.40;5.60;;;36.70;47.70;;;;;;6215044;23;20008;-79
2023/07/09 12:38:49;;;;;;;11.85;5.55;;;36.70;48.00;;;;;;6215137;23;20335;-79
2023/07/09 12:41:41;;;;;;;10.77;5.75;;;36.70;47.90;;;;;;6215186;23;20087;-79
2023/07/09 12:44:19;;;;;;;10.32;5.18;;;36.70;48.00;;;;;;6215433;23;20001;-79
2023/07/09 12:46:46;;;;;;;9.27;5.40;;;36.70;48.00;;;;;;6215397;23;20007;-79
2023/07/09 12:49:36;;;;;;;9.25;5.38;;;36.70;47.80;;;;;;6214924;23;20052;-78